createdAt,value
2018-09-30T00:00:10.655Z,4.60
2018-09-30T00:00:44.808Z,4.05
2018-09-30T00:01:18.611Z,4.12
2018-09-30T00:01:52.549Z,4.05
2018-09-30T00:02:26.832Z,4.62
2018-09-30T00:03:00.954Z,4.22
2018-09-30T00:03:37.204Z,4.53
2018-09-30T00:04:11.598Z,4.58
2018-09-30T00:04:45.381Z,4.00
2018-09-30T00:05:19.307Z,4.20
2018-09-30T00:05:53.062Z,4.83
2018-09-30T00:06:27.469Z,4.15
2018-09-30T00:07:01.760Z,3.95
2018-09-30T00:07:39.550Z,4.35
2018-09-30T00:08:13.407Z,3.92
2018-09-30T00:08:47.693Z,4.28
2018-09-30T00:09:26.173Z,4.75
2018-09-30T00:10:00.584Z,5.17
2018-09-30T00:10:34.752Z,4.30
2018-09-30T00:11:09.003Z,4.10
2018-09-30T00:11:43.103Z,4.15
2018-09-30T00:12:16.876Z,4.12
2018-09-30T00:12:50.824Z,3.92
2018-09-30T00:13:24.754Z,4.00
2018-09-30T00:13:59.055Z,4.25
2018-09-30T00:14:33.092Z,4.95
2018-09-30T00:15:07.431Z,4.15
2018-09-30T00:15:41.663Z,4.03
2018-09-30T00:16:15.645Z,4.25
2018-09-30T00:16:49.653Z,4.10
2018-09-30T00:17:23.675Z,4.30
2018-09-30T00:17:57.976Z,3.80
2018-09-30T00:18:31.893Z,4.47
2018-09-30T00:19:06.283Z,4.17
2018-09-30T00:19:40.931Z,3.55
2018-09-30T00:20:14.822Z,3.40
2018-09-30T00:20:48.700Z,4.33
2018-09-30T00:21:22.480Z,4.30
2018-09-30T00:21:56.714Z,4.03
2018-09-30T00:22:30.898Z,3.80
2018-09-30T00:23:04.857Z,4.05
2018-09-30T00:23:45.685Z,4.15
2018-09-30T00:24:25.068Z,3.77
2018-09-30T00:25:04.809Z,3.90
2018-09-30T00:25:44.417Z,4.28
2018-09-30T00:26:24.156Z,3.77
2018-09-30T00:27:05.603Z,4.22
2018-09-30T00:27:40.251Z,4.10
2018-09-30T00:28:14.348Z,4.20
2018-09-30T00:28:48.414Z,4.22
2018-09-30T00:29:22.772Z,3.65
2018-09-30T00:29:56.983Z,3.20
2018-09-30T00:30:30.964Z,3.90
2018-09-30T00:31:05.505Z,3.85
2018-09-30T00:31:40.686Z,3.58
2018-09-30T00:32:14.625Z,3.50
2018-09-30T00:32:48.440Z,3.77
2018-09-30T00:33:22.272Z,3.17
2018-09-30T00:34:01.657Z,4.05
2018-09-30T00:34:35.903Z,3.70
2018-09-30T00:35:10.165Z,3.60
2018-09-30T00:35:44.131Z,3.60
2018-09-30T00:36:17.929Z,3.62
2018-09-30T00:36:52.963Z,3.70
2018-09-30T00:37:26.840Z,3.37
2018-09-30T00:38:00.766Z,2.98
2018-09-30T00:38:34.649Z,3.50
2018-09-30T00:39:08.511Z,3.50
2018-09-30T00:39:42.369Z,3.50
2018-09-30T00:40:16.311Z,3.47
2018-09-30T00:40:50.233Z,3.92
2018-09-30T00:41:24.088Z,3.58
2018-09-30T00:41:58.120Z,3.80
2018-09-30T00:42:32.076Z,3.65
2018-09-30T00:43:05.930Z,3.55
2018-09-30T00:43:39.891Z,3.35
2018-09-30T00:44:13.799Z,3.70
2018-09-30T00:44:47.791Z,3.58
2018-09-30T00:45:21.672Z,3.35
2018-09-30T00:45:55.571Z,3.65
2018-09-30T00:46:29.380Z,3.47
2018-09-30T00:47:03.200Z,3.83
2018-09-30T00:47:37.328Z,3.20
2018-09-30T00:48:11.347Z,3.55
2018-09-30T00:48:45.905Z,3.67
2018-09-30T00:49:19.751Z,3.50
2018-09-30T00:49:53.665Z,3.80
2018-09-30T00:50:27.837Z,3.58
2018-09-30T00:51:01.762Z,3.45
2018-09-30T00:51:35.748Z,3.65
2018-09-30T00:52:09.977Z,3.30
2018-09-30T00:52:44.050Z,3.80
2018-09-30T00:53:17.728Z,3.50
2018-09-30T00:53:51.692Z,3.50
2018-09-30T00:54:25.827Z,3.95
2018-09-30T00:54:59.644Z,3.60
2018-09-30T00:55:33.413Z,3.30
2018-09-30T00:56:07.304Z,3.40
2018-09-30T00:56:41.675Z,3.52
2018-09-30T00:57:15.340Z,2.85
2018-09-30T00:57:49.227Z,3.85
2018-09-30T00:58:23.232Z,3.20
2018-09-30T00:58:57.003Z,4.05
2018-09-30T00:59:31.449Z,3.15
2018-09-30T01:00:06.191Z,3.30
2018-09-30T01:00:39.942Z,3.22
2018-09-30T01:01:13.925Z,4.03
2018-09-30T01:01:47.892Z,3.72
2018-09-30T01:02:21.811Z,3.55
2018-09-30T01:02:55.873Z,3.47
2018-09-30T01:03:29.874Z,4.10
2018-09-30T01:04:04.070Z,3.37
2018-09-30T01:04:37.764Z,3.33
2018-09-30T01:05:11.869Z,3.72
2018-09-30T01:05:46.377Z,3.50
2018-09-30T01:06:20.539Z,3.37
2018-09-30T01:06:54.478Z,3.52
2018-09-30T01:07:28.354Z,3.60
2018-09-30T01:08:02.252Z,3.35
2018-09-30T01:08:36.058Z,3.15
2018-09-30T01:09:12.296Z,3.00
2018-09-30T01:09:46.254Z,3.67
2018-09-30T01:10:20.164Z,3.00
2018-09-30T01:10:53.925Z,3.20
2018-09-30T01:11:27.920Z,4.00
2018-09-30T01:12:01.885Z,3.40
2018-09-30T01:12:35.711Z,3.20
2018-09-30T01:13:09.673Z,4.00
2018-09-30T01:13:43.764Z,3.72
2018-09-30T01:14:17.765Z,3.25
2018-09-30T01:14:51.578Z,3.37
2018-09-30T01:15:25.376Z,3.30
2018-09-30T01:15:59.445Z,3.52
2018-09-30T01:16:33.608Z,3.62
2018-09-30T01:17:07.225Z,3.35
2018-09-30T01:17:41.412Z,3.17
2018-09-30T01:18:15.469Z,3.17
2018-09-30T01:18:49.306Z,3.45
2018-09-30T01:19:23.356Z,3.17
2018-09-30T01:19:57.025Z,3.58
2018-09-30T01:20:30.925Z,3.27
2018-09-30T01:21:05.460Z,3.72
2018-09-30T01:21:39.328Z,3.58
2018-09-30T01:22:13.128Z,3.55
2018-09-30T01:22:47.473Z,3.85
2018-09-30T01:23:21.459Z,3.45
2018-09-30T01:23:55.349Z,3.42
2018-09-30T01:24:29.548Z,3.62
2018-09-30T01:25:03.439Z,3.40
2018-09-30T01:25:37.270Z,3.60
2018-09-30T01:26:10.916Z,3.40
2018-09-30T01:26:45.106Z,3.60
2018-09-30T01:27:19.368Z,3.40
2018-09-30T01:27:53.159Z,3.42
2018-09-30T01:28:27.209Z,3.33
2018-09-30T01:29:01.712Z,3.37
2018-09-30T01:29:35.620Z,3.37
2018-09-30T01:30:09.594Z,3.62
2018-09-30T01:30:43.708Z,3.02
2018-09-30T01:31:17.694Z,3.62
2018-09-30T01:31:58.252Z,4.08
2018-09-30T01:32:32.339Z,3.45
2018-09-30T01:33:06.208Z,3.37
2018-09-30T01:33:39.923Z,3.33
2018-09-30T01:34:13.620Z,3.22
2018-09-30T01:34:48.016Z,3.40
2018-09-30T01:35:21.988Z,3.58
2018-09-30T01:35:55.921Z,3.55
2018-09-30T01:36:30.012Z,3.80
2018-09-30T01:37:03.717Z,3.22
2018-09-30T01:37:37.411Z,3.05
2018-09-30T01:38:11.236Z,3.90
2018-09-30T01:38:45.194Z,3.33
2018-09-30T01:39:19.293Z,3.22
2018-09-30T01:39:53.104Z,3.55
2018-09-30T01:40:26.920Z,4.10
2018-09-30T01:41:00.676Z,3.60
2018-09-30T01:41:34.350Z,3.25
2018-09-30T01:42:08.345Z,3.25
2018-09-30T01:42:42.317Z,3.55
2018-09-30T01:43:16.320Z,3.55
2018-09-30T01:43:50.284Z,3.60
2018-09-30T01:44:24.145Z,3.35
2018-09-30T01:44:58.417Z,3.42
2018-09-30T01:45:32.331Z,3.42
2018-09-30T01:46:06.442Z,3.27
2018-09-30T01:46:40.728Z,3.60
2018-09-30T01:47:14.396Z,3.40
2018-09-30T01:47:48.458Z,4.37
2018-09-30T01:48:22.256Z,3.77
2018-09-30T01:48:56.119Z,3.15
2018-09-30T01:49:30.168Z,3.37
2018-09-30T01:50:04.222Z,3.52
2018-09-30T01:50:38.316Z,3.37
2018-09-30T01:51:12.394Z,3.30
2018-09-30T01:51:56.646Z,3.67
2018-09-30T01:52:41.844Z,3.10
2018-09-30T01:53:15.696Z,3.37
2018-09-30T01:53:49.643Z,3.27
2018-09-30T01:54:23.380Z,3.05
2018-09-30T01:54:57.478Z,3.37
2018-09-30T01:55:31.375Z,3.47
2018-09-30T01:56:05.282Z,3.02
2018-09-30T01:56:39.374Z,2.70
2018-09-30T01:57:13.305Z,2.85
2018-09-30T01:57:47.172Z,2.92
2018-09-30T01:58:21.186Z,2.90
2018-09-30T01:58:55.180Z,2.75
2018-09-30T01:59:29.077Z,2.85
2018-09-30T02:00:03.210Z,3.20
2018-09-30T02:00:37.163Z,3.27
2018-09-30T02:01:11.100Z,3.20
2018-09-30T02:01:45.222Z,3.50
2018-09-30T02:02:19.269Z,2.42
2018-09-30T02:02:53.336Z,3.02
2018-09-30T02:03:27.280Z,3.17
2018-09-30T02:04:01.237Z,3.02
2018-09-30T02:04:35.110Z,3.30
2018-09-30T02:05:09.028Z,3.10
2018-09-30T02:05:42.860Z,2.80
2018-09-30T02:06:16.792Z,3.12
2018-09-30T02:06:51.087Z,3.02
2018-09-30T02:07:25.077Z,3.33
2018-09-30T02:07:58.860Z,2.75
2018-09-30T02:08:33.018Z,2.85
2018-09-30T02:09:07.014Z,3.08
2018-09-30T02:09:41.084Z,2.75
2018-09-30T02:10:15.022Z,2.65
2018-09-30T02:10:48.810Z,3.20
2018-09-30T02:11:23.108Z,2.60
2018-09-30T02:11:57.269Z,2.37
2018-09-30T02:12:31.324Z,3.30
2018-09-30T02:13:05.272Z,2.80
2018-09-30T02:13:39.191Z,2.40
2018-09-30T02:14:13.192Z,2.65
2018-09-30T02:14:47.061Z,2.67
2018-09-30T02:15:21.431Z,2.80
2018-09-30T02:15:55.269Z,2.70
2018-09-30T02:16:29.721Z,2.70
2018-09-30T02:17:03.903Z,2.65
2018-09-30T02:17:37.856Z,2.80
2018-09-30T02:18:11.835Z,2.50
2018-09-30T02:18:45.765Z,2.90
2018-09-30T02:19:19.444Z,3.35
2018-09-30T02:19:53.275Z,3.25
2018-09-30T02:20:27.247Z,2.85
2018-09-30T02:21:01.247Z,2.80
2018-09-30T02:21:35.034Z,2.65
2018-09-30T02:22:09.098Z,2.58
2018-09-30T02:22:42.921Z,2.70
2018-09-30T02:23:16.915Z,2.90
2018-09-30T02:23:50.642Z,2.52
2018-09-30T02:24:24.707Z,2.87
2018-09-30T02:24:59.026Z,2.87
2018-09-30T02:25:33.108Z,2.80
2018-09-30T02:26:07.108Z,2.60
2018-09-30T02:26:41.309Z,2.80
2018-09-30T02:27:15.117Z,2.80
2018-09-30T02:27:48.920Z,2.80
2018-09-30T02:28:22.750Z,2.92
2018-09-30T02:28:56.887Z,2.47
2018-09-30T02:29:30.881Z,2.55
2018-09-30T02:30:05.114Z,3.20
2018-09-30T02:30:41.976Z,2.50
2018-09-30T02:31:15.849Z,2.62
2018-09-30T02:31:50.512Z,2.70
2018-09-30T02:32:24.317Z,2.70
2018-09-30T02:32:58.790Z,2.70
2018-09-30T02:33:32.986Z,2.83
2018-09-30T02:34:06.882Z,2.72
2018-09-30T02:34:40.896Z,2.60
2018-09-30T02:35:14.862Z,2.90
2018-09-30T02:35:48.627Z,2.77
2018-09-30T02:36:22.667Z,2.40
2018-09-30T02:36:56.573Z,2.70
2018-09-30T02:37:30.936Z,2.52
2018-09-30T02:38:04.785Z,2.42
2018-09-30T02:38:38.487Z,2.40
2018-09-30T02:39:12.543Z,2.55
2018-09-30T02:39:47.397Z,2.87
2018-09-30T02:40:21.525Z,2.72
2018-09-30T02:40:55.361Z,2.47
2018-09-30T02:41:29.332Z,2.90
2018-09-30T02:42:03.517Z,2.37
2018-09-30T02:42:37.341Z,2.98
2018-09-30T02:43:11.341Z,2.90
2018-09-30T02:43:45.150Z,2.90
2018-09-30T02:44:19.263Z,2.77
2018-09-30T02:44:53.404Z,2.92
2018-09-30T02:45:27.534Z,2.90
2018-09-30T02:46:01.635Z,3.02
2018-09-30T02:46:36.117Z,2.95
2018-09-30T02:47:09.729Z,2.87
2018-09-30T02:47:43.585Z,2.58
2018-09-30T02:48:17.501Z,3.15
2018-09-30T02:48:51.170Z,2.65
2018-09-30T02:49:25.829Z,2.87
2018-09-30T02:50:00.216Z,2.90
2018-09-30T02:50:33.914Z,2.80
2018-09-30T02:51:07.748Z,3.47
2018-09-30T02:51:41.706Z,2.52
2018-09-30T02:52:15.451Z,2.50
2018-09-30T02:52:49.213Z,3.00
2018-09-30T02:53:23.055Z,2.58
2018-09-30T02:53:56.958Z,2.70
2018-09-30T02:54:31.158Z,2.70
2018-09-30T02:55:05.267Z,2.90
2018-09-30T02:55:39.254Z,2.70
2018-09-30T02:56:13.468Z,2.87
2018-09-30T02:56:47.309Z,2.90
2018-09-30T02:57:21.147Z,2.95
2018-09-30T02:57:54.980Z,2.67
2018-09-30T02:58:29.467Z,2.90
2018-09-30T02:59:03.661Z,2.85
2018-09-30T02:59:37.734Z,2.62
2018-09-30T03:00:11.818Z,3.00
2018-09-30T03:00:45.521Z,2.95
2018-09-30T03:01:19.476Z,2.65
2018-09-30T03:01:53.522Z,3.10
2018-09-30T03:02:27.432Z,2.67
2018-09-30T03:03:01.765Z,3.33
2018-09-30T03:03:35.716Z,2.98
2018-09-30T03:04:09.648Z,2.58
2018-09-30T03:04:43.520Z,3.00
2018-09-30T03:05:17.381Z,2.60
2018-09-30T03:05:51.070Z,2.90
2018-09-30T03:06:30.552Z,2.45
2018-09-30T03:07:10.252Z,2.20
2018-09-30T03:07:49.677Z,3.00
2018-09-30T03:08:29.158Z,2.50
2018-09-30T03:09:09.251Z,2.80
2018-09-30T03:09:43.644Z,3.00
2018-09-30T03:10:17.376Z,2.50
2018-09-30T03:10:51.226Z,2.85
2018-09-30T03:11:24.989Z,2.60
2018-09-30T03:11:58.852Z,2.80
2018-09-30T03:12:33.164Z,2.77
2018-09-30T03:13:07.494Z,2.27
2018-09-30T03:13:41.603Z,2.30
2018-09-30T03:14:16.136Z,2.05
2018-09-30T03:14:49.867Z,2.83
2018-09-30T03:15:23.810Z,2.37
2018-09-30T03:15:57.612Z,2.22
2018-09-30T03:16:31.734Z,2.42
2018-09-30T03:17:05.876Z,2.70
2018-09-30T03:17:39.943Z,2.50
2018-09-30T03:18:13.641Z,2.47
2018-09-30T03:18:47.370Z,2.30
2018-09-30T03:19:21.189Z,2.50
2018-09-30T03:19:55.316Z,2.52
2018-09-30T03:20:29.213Z,2.50
2018-09-30T03:21:03.568Z,2.70
2018-09-30T03:21:37.871Z,2.55
2018-09-30T03:22:11.821Z,2.27
2018-09-30T03:22:45.628Z,2.98
2018-09-30T03:23:19.281Z,2.52
2018-09-30T03:23:53.473Z,2.70
2018-09-30T03:24:27.320Z,2.10
2018-09-30T03:25:01.296Z,2.77
2018-09-30T03:25:35.401Z,2.40
2018-09-30T03:26:09.817Z,2.37
2018-09-30T03:26:43.754Z,2.67
2018-09-30T03:27:17.620Z,2.80
2018-09-30T03:27:51.334Z,2.77
2018-09-30T03:28:25.220Z,2.70
2018-09-30T03:28:59.292Z,2.40
2018-09-30T03:29:33.431Z,2.45
2018-09-30T03:30:07.786Z,2.80
2018-09-30T03:30:41.739Z,3.00
2018-09-30T03:31:15.627Z,2.72
2018-09-30T03:31:49.379Z,2.60
2018-09-30T03:32:23.206Z,2.70
2018-09-30T03:32:57.079Z,2.75
2018-09-30T03:33:30.699Z,3.05
2018-09-30T03:34:04.862Z,2.87
2018-09-30T03:34:39.143Z,2.72
2018-09-30T03:35:13.002Z,2.70
2018-09-30T03:35:47.001Z,2.83
2018-09-30T03:36:20.884Z,2.92
2018-09-30T03:36:54.784Z,2.98
2018-09-30T03:37:28.612Z,3.30
2018-09-30T03:38:03.337Z,2.92
2018-09-30T03:38:37.697Z,3.17
2018-09-30T03:39:11.509Z,3.40
2018-09-30T03:39:45.390Z,3.45
2018-09-30T03:40:19.163Z,2.90
2018-09-30T03:40:53.181Z,3.00
2018-09-30T03:41:26.861Z,3.40
2018-09-30T03:42:00.707Z,3.50
2018-09-30T03:42:34.627Z,2.72
2018-09-30T03:43:09.054Z,3.25
2018-09-30T03:43:43.154Z,3.67
2018-09-30T03:44:16.961Z,4.00
2018-09-30T03:44:50.623Z,3.12
2018-09-30T03:45:24.528Z,3.08
2018-09-30T03:45:58.355Z,3.10
2018-09-30T03:46:32.380Z,3.45
2018-09-30T03:47:06.393Z,3.50
2018-09-30T03:47:40.633Z,3.08
2018-09-30T03:48:14.472Z,3.35
2018-09-30T03:48:48.589Z,3.15
2018-09-30T03:49:22.632Z,3.62
2018-09-30T03:49:56.539Z,3.12
2018-09-30T03:50:30.337Z,3.15
2018-09-30T03:51:04.200Z,3.42
2018-09-30T03:51:37.988Z,3.45
2018-09-30T03:52:11.850Z,3.25
2018-09-30T03:52:45.883Z,3.77
2018-09-30T03:53:19.781Z,3.42
2018-09-30T03:53:53.435Z,3.20
2018-09-30T03:54:27.507Z,3.50
2018-09-30T03:55:01.567Z,3.62
2018-09-30T03:55:35.564Z,3.60
2018-09-30T03:56:10.031Z,3.40
2018-09-30T03:56:44.055Z,3.62
2018-09-30T03:57:17.708Z,3.65
2018-09-30T03:57:51.756Z,3.65
2018-09-30T03:58:25.791Z,3.30
2018-09-30T03:58:59.595Z,3.15
2018-09-30T03:59:34.709Z,2.87
2018-09-30T04:00:09.115Z,3.15
2018-09-30T04:00:43.179Z,3.35
2018-09-30T04:01:17.177Z,3.10
2018-09-30T04:01:50.829Z,3.15
2018-09-30T04:02:24.616Z,2.83
2018-09-30T04:02:58.693Z,3.35
2018-09-30T04:03:32.387Z,3.12
2018-09-30T04:04:06.786Z,3.47
2018-09-30T04:04:41.457Z,3.17
2018-09-30T04:05:15.357Z,3.20
2018-09-30T04:05:49.432Z,3.30
2018-09-30T04:06:23.420Z,2.60
2018-09-30T04:06:57.177Z,3.92
2018-09-30T04:07:31.028Z,3.10
2018-09-30T04:08:04.928Z,3.47
2018-09-30T04:08:38.825Z,3.40
2018-09-30T04:09:13.040Z,3.37
2018-09-30T04:09:47.060Z,3.20
2018-09-30T04:10:20.905Z,3.60
2018-09-30T04:10:54.756Z,3.58
2018-09-30T04:11:28.951Z,3.20
2018-09-30T04:12:03.657Z,3.37
2018-09-30T04:12:37.704Z,3.10
2018-09-30T04:13:12.079Z,3.33
2018-09-30T04:13:45.924Z,3.05
2018-09-30T04:14:19.788Z,3.72
2018-09-30T04:14:53.688Z,3.25
2018-09-30T04:15:27.405Z,3.20
2018-09-30T04:16:01.359Z,3.10
2018-09-30T04:16:35.205Z,3.80
2018-09-30T04:17:09.371Z,3.37
2018-09-30T04:17:44.217Z,3.37
2018-09-30T04:18:18.098Z,3.22
2018-09-30T04:18:51.743Z,3.17
2018-09-30T04:19:25.693Z,3.05
2018-09-30T04:19:59.595Z,3.20
2018-09-30T04:20:33.467Z,3.00
2018-09-30T04:21:07.099Z,3.22
2018-09-30T04:21:41.354Z,2.87
2018-09-30T04:22:15.769Z,3.42
2018-09-30T04:22:49.605Z,2.70
2018-09-30T04:23:23.569Z,3.27
2018-09-30T04:24:02.891Z,3.08
2018-09-30T04:24:36.727Z,2.98
2018-09-30T04:25:10.925Z,3.40
2018-09-30T04:25:44.810Z,3.40
2018-09-30T04:26:18.969Z,3.40
2018-09-30T04:26:52.738Z,3.20
2018-09-30T04:27:26.505Z,3.30
2018-09-30T04:28:00.404Z,3.05
2018-09-30T04:28:34.404Z,3.30
2018-09-30T04:29:08.912Z,3.67
2018-09-30T04:29:43.228Z,2.92
2018-09-30T04:30:17.368Z,3.62
2018-09-30T04:30:51.312Z,3.40
2018-09-30T04:31:25.379Z,3.58
2018-09-30T04:31:59.360Z,3.27
2018-09-30T04:32:33.224Z,3.50
2018-09-30T04:33:07.073Z,3.15
2018-09-30T04:33:40.790Z,3.22
2018-09-30T04:34:14.877Z,3.50
2018-09-30T04:34:48.977Z,3.37
2018-09-30T04:35:22.875Z,3.15
2018-09-30T04:35:56.640Z,3.65
2018-09-30T04:36:31.195Z,2.90
2018-09-30T04:37:05.385Z,3.25
2018-09-30T04:37:39.063Z,3.52
2018-09-30T04:38:13.038Z,3.40
2018-09-30T04:38:47.046Z,3.65
2018-09-30T04:39:20.862Z,3.30
2018-09-30T04:39:54.776Z,3.33
2018-09-30T04:40:28.469Z,3.67
2018-09-30T04:41:02.430Z,3.05
2018-09-30T04:41:36.234Z,3.80
2018-09-30T04:42:10.079Z,2.92
2018-09-30T04:42:44.410Z,3.25
2018-09-30T04:43:18.394Z,3.60
2018-09-30T04:43:52.492Z,3.22
2018-09-30T04:44:26.376Z,3.37
2018-09-30T04:45:00.472Z,3.25
2018-09-30T04:45:34.363Z,3.40
2018-09-30T04:46:08.345Z,3.10
2018-09-30T04:46:42.201Z,3.55
2018-09-30T04:47:16.061Z,2.98
2018-09-30T04:47:49.992Z,3.35
2018-09-30T04:48:24.051Z,3.55
2018-09-30T04:48:58.107Z,3.37
2018-09-30T04:49:31.930Z,3.15
2018-09-30T04:50:05.947Z,3.22
2018-09-30T04:50:39.801Z,3.17
2018-09-30T04:51:13.741Z,3.70
2018-09-30T04:51:47.586Z,3.22
2018-09-30T04:52:21.684Z,3.15
2018-09-30T04:52:55.486Z,3.05
2018-09-30T04:53:29.269Z,3.08
2018-09-30T04:54:03.195Z,3.80
2018-09-30T04:54:37.135Z,3.33
2018-09-30T04:55:11.237Z,4.28
2018-09-30T04:55:45.763Z,3.62
2018-09-30T04:56:20.106Z,3.12
2018-09-30T04:56:53.811Z,3.65
2018-09-30T04:57:27.820Z,3.15
2018-09-30T04:58:01.602Z,3.67
2018-09-30T04:58:35.880Z,3.37
2018-09-30T04:59:09.647Z,3.33
2018-09-30T04:59:43.583Z,3.33
2018-09-30T05:00:17.665Z,3.45
2018-09-30T05:00:51.669Z,3.37
2018-09-30T05:01:25.533Z,3.80
2018-09-30T05:01:59.594Z,3.30
2018-09-30T05:02:33.340Z,3.70
2018-09-30T05:03:07.182Z,3.25
2018-09-30T05:03:40.904Z,3.33
2018-09-30T05:04:14.828Z,3.10
2018-09-30T05:04:48.820Z,3.47
2018-09-30T05:05:22.875Z,3.70
2018-09-30T05:05:56.681Z,3.10
2018-09-30T05:06:30.663Z,3.60
2018-09-30T05:07:04.913Z,3.62
2018-09-30T05:07:40.353Z,3.20
2018-09-30T05:08:14.512Z,4.22
2018-09-30T05:08:48.665Z,3.65
2018-09-30T05:09:22.842Z,3.25
2018-09-30T05:09:56.592Z,3.72
2018-09-30T05:10:30.445Z,3.00
2018-09-30T05:11:04.657Z,3.33
2018-09-30T05:11:38.920Z,3.20
2018-09-30T05:12:12.684Z,3.58
2018-09-30T05:12:46.550Z,3.22
2018-09-30T05:13:20.588Z,3.42
2018-09-30T05:13:54.877Z,3.52
2018-09-30T05:14:28.824Z,3.45
2018-09-30T05:15:02.823Z,3.20
2018-09-30T05:15:37.076Z,3.20
2018-09-30T05:16:11.097Z,3.20
2018-09-30T05:16:44.913Z,3.72
2018-09-30T05:17:18.676Z,3.42
2018-09-30T05:17:52.580Z,3.12
2018-09-30T05:18:27.458Z,3.67
2018-09-30T05:19:01.600Z,3.60
2018-09-30T05:19:35.800Z,3.25
2018-09-30T05:20:09.712Z,3.42
2018-09-30T05:20:46.149Z,3.35
2018-09-30T05:21:20.263Z,3.20
2018-09-30T05:21:54.883Z,3.80
2018-09-30T05:22:28.784Z,3.77
2018-09-30T05:23:02.635Z,3.22
2018-09-30T05:23:36.711Z,2.98
2018-09-30T05:24:10.721Z,3.15
2018-09-30T05:24:44.576Z,3.60
2018-09-30T05:25:18.460Z,3.30
2018-09-30T05:25:52.414Z,3.45
2018-09-30T05:26:26.416Z,3.30
2018-09-30T05:27:00.331Z,3.37
2018-09-30T05:27:34.092Z,3.35
2018-09-30T05:28:07.974Z,3.35
2018-09-30T05:28:41.709Z,3.25
2018-09-30T05:29:15.667Z,3.15
2018-09-30T05:29:49.638Z,3.42
2018-09-30T05:30:23.619Z,3.37
2018-09-30T05:30:57.791Z,3.65
2018-09-30T05:31:31.963Z,3.00
2018-09-30T05:32:07.129Z,3.50
2018-09-30T05:32:40.867Z,3.52
2018-09-30T05:33:14.846Z,3.30
2018-09-30T05:33:48.872Z,2.95
2018-09-30T05:34:22.936Z,3.47
2018-09-30T05:34:56.958Z,3.50
2018-09-30T05:35:31.106Z,3.47
2018-09-30T05:36:05.503Z,3.20
2018-09-30T05:36:39.484Z,3.65
2018-09-30T05:37:13.635Z,3.60
2018-09-30T05:37:47.526Z,3.12
2018-09-30T05:38:21.819Z,3.30
2018-09-30T05:38:55.630Z,3.22
2018-09-30T05:39:29.694Z,3.00
2018-09-30T05:40:03.389Z,3.37
2018-09-30T05:40:37.360Z,2.95
2018-09-30T05:41:11.506Z,3.42
2018-09-30T05:41:45.249Z,3.42
2018-09-30T05:42:19.169Z,3.72
2018-09-30T05:43:00.006Z,3.95
2018-09-30T05:43:33.982Z,3.08
2018-09-30T05:44:08.519Z,3.70
2018-09-30T05:44:42.340Z,3.42
2018-09-30T05:45:16.178Z,3.02
2018-09-30T05:45:50.345Z,3.30
2018-09-30T05:46:24.359Z,3.27
2018-09-30T05:46:58.162Z,3.50
2018-09-30T05:47:32.345Z,3.10
2018-09-30T05:48:06.533Z,3.47
2018-09-30T05:48:40.439Z,3.20
2018-09-30T05:49:14.452Z,3.67
2018-09-30T05:49:48.404Z,3.40
2018-09-30T05:50:22.697Z,3.72
2018-09-30T05:50:56.621Z,3.47
2018-09-30T05:51:30.891Z,3.55
2018-09-30T05:52:05.245Z,3.00
2018-09-30T05:52:39.189Z,3.10
2018-09-30T05:53:13.321Z,3.42
2018-09-30T05:53:47.117Z,3.52
2018-09-30T05:54:21.126Z,3.90
2018-09-30T05:54:55.185Z,3.45
2018-09-30T05:55:29.612Z,3.37
2018-09-30T05:56:03.651Z,3.67
2018-09-30T05:56:37.427Z,3.35
2018-09-30T05:57:11.478Z,2.92
2018-09-30T05:57:45.153Z,3.67
2018-09-30T05:58:19.085Z,3.25
2018-09-30T05:58:53.519Z,3.20
2018-09-30T05:59:27.901Z,3.95
2018-09-30T06:00:01.743Z,3.17
2018-09-30T06:00:35.968Z,3.00
2018-09-30T06:01:09.733Z,3.05
2018-09-30T06:01:43.590Z,3.83
2018-09-30T06:02:19.125Z,3.08
2018-09-30T06:02:53.093Z,3.05
2018-09-30T06:03:27.028Z,3.42
2018-09-30T06:04:01.039Z,3.80
2018-09-30T06:04:34.960Z,3.47
2018-09-30T06:05:08.912Z,3.90
2018-09-30T06:05:42.748Z,4.03
2018-09-30T06:06:16.688Z,3.47
2018-09-30T06:06:50.860Z,3.62
2018-09-30T06:07:24.830Z,3.87
2018-09-30T06:08:00.093Z,3.67
2018-09-30T06:08:34.020Z,3.58
2018-09-30T06:09:12.579Z,2.80
2018-09-30T06:09:46.265Z,3.40
2018-09-30T06:10:20.257Z,3.83
2018-09-30T06:10:54.053Z,3.42
2018-09-30T06:11:27.947Z,2.95
2018-09-30T06:12:01.993Z,3.55
2018-09-30T06:12:35.939Z,3.45
2018-09-30T06:13:09.696Z,3.45
2018-09-30T06:13:43.859Z,3.65
2018-09-30T06:14:18.165Z,3.52
2018-09-30T06:14:52.078Z,3.50
2018-09-30T06:15:26.120Z,3.65
2018-09-30T06:16:00.247Z,3.22
2018-09-30T06:16:34.256Z,3.30
2018-09-30T06:17:08.312Z,3.50
2018-09-30T06:17:42.129Z,3.35
2018-09-30T06:18:16.011Z,3.62
2018-09-30T06:18:49.909Z,3.37
2018-09-30T06:19:23.761Z,3.42
2018-09-30T06:19:57.507Z,3.33
2018-09-30T06:20:31.891Z,3.98
2018-09-30T06:21:07.571Z,3.42
2018-09-30T06:21:44.450Z,3.35
2018-09-30T06:22:20.248Z,3.52
2018-09-30T06:22:54.228Z,3.27
2018-09-30T06:23:27.877Z,3.83
2018-09-30T06:24:02.595Z,3.95
2018-09-30T06:24:36.681Z,3.85
2018-09-30T06:25:10.651Z,3.70
2018-09-30T06:25:44.753Z,3.58
2018-09-30T06:26:18.672Z,3.55
2018-09-30T06:26:52.635Z,4.15
2018-09-30T06:27:26.840Z,3.70
2018-09-30T06:28:00.773Z,3.95
2018-09-30T06:28:34.866Z,3.40
2018-09-30T06:29:08.535Z,3.20
2018-09-30T06:29:42.327Z,3.75
2018-09-30T06:30:16.399Z,3.80
2018-09-30T06:30:50.246Z,3.40
2018-09-30T06:31:24.028Z,3.85
2018-09-30T06:31:58.014Z,4.28
2018-09-30T06:32:31.794Z,3.55
2018-09-30T06:33:06.250Z,3.60
2018-09-30T06:33:40.076Z,3.62
2018-09-30T06:34:14.088Z,4.22
2018-09-30T06:34:48.137Z,3.85
2018-09-30T06:35:21.973Z,4.05
2018-09-30T06:35:55.915Z,4.00
2018-09-30T06:36:29.682Z,3.67
2018-09-30T06:37:03.900Z,3.30
2018-09-30T06:37:37.771Z,3.75
2018-09-30T06:38:11.592Z,3.77
2018-09-30T06:38:46.061Z,3.45
2018-09-30T06:39:19.974Z,3.67
2018-09-30T06:39:54.182Z,3.70
2018-09-30T06:40:28.108Z,3.50
2018-09-30T06:41:02.152Z,3.50
2018-09-30T06:41:36.951Z,3.40
2018-09-30T06:42:10.913Z,4.37
2018-09-30T06:42:44.736Z,3.47
2018-09-30T06:43:18.630Z,3.92
2018-09-30T06:43:52.699Z,3.58
2018-09-30T06:44:26.741Z,3.55
2018-09-30T06:45:00.799Z,3.62
2018-09-30T06:45:34.859Z,3.40
2018-09-30T06:46:09.192Z,3.33
2018-09-30T06:46:43.296Z,4.00
2018-09-30T06:47:17.141Z,3.95
2018-09-30T06:47:51.015Z,3.70
2018-09-30T06:48:25.057Z,3.30
2018-09-30T06:48:58.867Z,3.80
2018-09-30T06:49:32.843Z,4.10
2018-09-30T06:50:06.860Z,4.08
2018-09-30T06:50:41.670Z,3.42
2018-09-30T06:51:16.036Z,3.67
2018-09-30T06:51:49.916Z,3.83
2018-09-30T06:52:23.605Z,3.80
2018-09-30T06:52:57.409Z,3.50
2018-09-30T06:53:31.636Z,3.77
2018-09-30T06:54:06.279Z,3.70
2018-09-30T06:54:40.094Z,3.62
2018-09-30T06:55:14.693Z,3.85
2018-09-30T06:55:48.757Z,3.52
2018-09-30T06:56:22.736Z,3.47
2018-09-30T06:56:56.796Z,3.47
2018-09-30T06:57:30.662Z,3.67
2018-09-30T06:58:05.263Z,3.98
2018-09-30T06:58:39.722Z,3.80
2018-09-30T06:59:13.972Z,3.58
2018-09-30T06:59:47.766Z,3.67
2018-09-30T07:00:21.739Z,2.92
2018-09-30T07:00:55.749Z,3.50
2018-09-30T07:01:29.678Z,4.15
2018-09-30T07:02:03.716Z,3.75
2018-09-30T07:02:38.001Z,3.62
2018-09-30T07:03:12.066Z,3.92
2018-09-30T07:03:46.032Z,3.33
2018-09-30T07:04:19.961Z,3.47
2018-09-30T07:04:53.876Z,3.72
2018-09-30T07:05:27.735Z,3.33
2018-09-30T07:06:01.605Z,3.35
2018-09-30T07:06:35.490Z,3.80
2018-09-30T07:07:09.448Z,3.20
2018-09-30T07:07:43.585Z,3.77
2018-09-30T07:08:17.826Z,3.35
2018-09-30T07:08:51.515Z,3.65
2018-09-30T07:09:25.276Z,3.60
2018-09-30T07:09:59.099Z,3.70
2018-09-30T07:10:32.848Z,3.80
2018-09-30T07:11:06.585Z,3.05
2018-09-30T07:11:40.445Z,3.55
2018-09-30T07:12:14.664Z,4.05
2018-09-30T07:12:48.661Z,3.40
2018-09-30T07:13:22.504Z,3.52
2018-09-30T07:13:56.535Z,3.20
2018-09-30T07:14:30.569Z,3.85
2018-09-30T07:15:04.600Z,3.70
2018-09-30T07:15:38.321Z,4.05
2018-09-30T07:16:12.197Z,3.27
2018-09-30T07:16:46.137Z,3.00
2018-09-30T07:17:20.433Z,3.10
2018-09-30T07:17:54.218Z,3.08
2018-09-30T07:18:28.199Z,3.08
2018-09-30T07:19:02.028Z,4.25
2018-09-30T07:19:35.839Z,3.10
2018-09-30T07:20:09.903Z,2.92
2018-09-30T07:20:44.372Z,3.33
2018-09-30T07:21:18.500Z,3.62
2018-09-30T07:21:52.165Z,3.40
2018-09-30T07:22:26.136Z,2.87
2018-09-30T07:22:59.943Z,3.30
2018-09-30T07:23:34.248Z,3.25
2018-09-30T07:24:08.258Z,3.40
2018-09-30T07:24:42.190Z,2.92
2018-09-30T07:25:17.168Z,3.20
2018-09-30T07:25:51.188Z,3.40
2018-09-30T07:26:24.982Z,3.27
2018-09-30T07:26:58.877Z,3.00
2018-09-30T07:27:32.726Z,3.45
2018-09-30T07:28:06.659Z,3.40
2018-09-30T07:28:40.791Z,3.45
2018-09-30T07:29:14.879Z,3.47
2018-09-30T07:29:49.345Z,3.65
2018-09-30T07:30:23.266Z,3.00
2018-09-30T07:30:57.279Z,3.17
2018-09-30T07:31:31.055Z,3.83
2018-09-30T07:32:04.950Z,3.27
2018-09-30T07:32:38.764Z,2.90
2018-09-30T07:33:13.188Z,2.80
2018-09-30T07:33:46.857Z,3.10
2018-09-30T07:34:20.732Z,3.50
2018-09-30T07:34:54.538Z,3.30